Time;durP1;ratioP1;P1;durP2;ratioP2;P2;SDS_P1;SDS_P2;PMS_P1;PMS_P2;Temp;Humidity;BMP_temperature;BMP_pressure;BME280_temperature;BME280_humidity;BME280_pressure;Samples;Min_cycle;Max_cycle;Signal;HPM_P1;HPM_P2
2022/03/20 00:01:39;;;;;;;23.97;18.77;;;6.60;77.50;;;;;;5098122;28;20177;-88
2022/03/20 00:04:04;;;;;;;23.27;19.13;;;6.50;78.00;;;;;;5115853;28;20190;-87
2022/03/20 00:06:30;;;;;;;23.77;18.63;;;6.50;78.20;;;;;;5097621;28;20207;-87
2022/03/20 00:08:56;;;;;;;23.40;19.53;;;6.50;78.00;;;;;;5118300;28;20212;-89
2022/03/20 00:11:22;;;;;;;22.27;18.57;;;6.50;77.70;;;;;;5110952;28;20202;-89
2022/03/20 00:13:47;;;;;;;21.93;18.67;;;6.50;77.70;;;;;;5118072;28;20184;-87
2022/03/20 00:16:14;;;;;;;23.30;19.20;;;6.50;77.60;;;;;;5129546;28;20223;-93
2022/03/20 00:18:40;;;;;;;22.50;18.83;;;6.50;77.80;;;;;;5102385;28;20264;-92
2022/03/20 00:21:09;;;;;;;23.50;18.53;;;6.60;78.10;;;;;;5101713;28;20199;-93
2022/03/20 00:23:35;;;;;;;21.33;17.93;;;6.50;78.00;;;;;;5115817;28;20171;-93
2022/03/20 00:26:01;;;;;;;23.50;18.37;;;6.50;77.90;;;;;;5098311;28;20270;-91
2022/03/20 00:28:28;;;;;;;21.10;18.23;;;6.40;78.20;;;;;;5098235;28;20308;-92
2022/03/20 00:30:55;;;;;;;22.73;18.47;;;6.40;77.60;;;;;;5118286;28;20199;-91
2022/03/20 00:33:21;;;;;;;21.37;18.50;;;6.40;77.80;;;;;;5116431;28;20251;-91
2022/03/20 00:35:47;;;;;;;20.60;17.70;;;6.40;77.70;;;;;;5116296;28;20175;-93
2022/03/20 00:38:13;;;;;;;21.43;17.60;;;6.40;78.20;;;;;;5098101;28;20268;-93
2022/03/20 00:40:39;;;;;;;22.47;18.77;;;6.40;77.20;;;;;;5098173;28;20215;-92
2022/03/20 00:43:06;;;;;;;22.53;18.03;;;6.40;77.50;;;;;;5116092;28;20198;-94
2022/03/20 00:45:33;;;;;;;20.03;17.90;;;6.40;76.90;;;;;;5115978;28;20170;-93
2022/03/20 00:47:59;;;;;;;24.50;17.90;;;6.30;77.00;;;;;;5097992;28;20174;-93
2022/03/20 00:50:25;;;;;;;21.30;18.10;;;6.40;77.20;;;;;;5100854;28;20235;-93
2022/03/20 00:52:50;;;;;;;19.33;17.07;;;6.40;77.30;;;;;;5108913;28;20219;-90
2022/03/20 00:55:16;;;;;;;22.10;18.13;;;6.30;77.80;;;;;;5117416;28;20166;-93
2022/03/20 00:57:42;;;;;;;21.27;17.87;;;6.30;78.00;;;;;;5115791;28;20269;-91
2022/03/20 01:00:08;;;;;;;24.17;19.53;;;6.20;77.90;;;;;;5115818;28;20211;-93
2022/03/20 01:02:42;;;;;;;25.33;18.60;;;6.20;78.20;;;;;;5097946;28;20180;-92
2022/03/20 01:05:09;;;;;;;22.97;18.60;;;6.10;78.20;;;;;;5115781;28;20167;-91
2022/03/20 01:07:36;;;;;;;24.47;19.73;;;6.00;78.50;;;;;;5098040;28;20175;-90
2022/03/20 01:10:04;;;;;;;22.60;19.33;;;6.00;78.60;;;;;;5103457;28;20293;-90
2022/03/20 01:12:31;;;;;;;24.33;18.53;;;6.00;78.60;;;;;;5106546;28;20721;-92
2022/03/20 01:14:57;;;;;;;22.73;19.53;;;5.90;78.50;;;;;;5120498;28;20167;-91
2022/03/20 01:17:23;;;;;;;23.50;19.47;;;5.90;78.60;;;;;;5097717;28;20173;-93
2022/03/20 01:19:49;;;;;;;23.43;18.93;;;5.90;78.70;;;;;;5097607;28;20186;-93
2022/03/20 01:22:16;;;;;;;24.40;19.53;;;5.90;78.80;;;;;;5117006;28;20165;-93
2022/03/20 01:24:42;;;;;;;23.23;18.90;;;5.80;78.80;;;;;;5105515;28;20174;-93
2022/03/20 01:27:09;;;;;;;24.07;19.30;;;5.80;79.00;;;;;;5129254;28;20177;-93
2022/03/20 01:29:35;;;;;;;28.83;18.90;;;5.80;79.10;;;;;;5132636;28;20206;-89
2022/03/20 01:32:01;;;;;;;25.73;20.00;;;5.80;79.30;;;;;;5122734;28;20693;-89
2022/03/20 01:34:28;;;;;;;21.53;18.87;;;5.90;79.20;;;;;;5098187;28;20660;-89
2022/03/20 01:36:54;;;;;;;24.47;18.67;;;5.80;79.20;;;;;;5098579;28;20184;-91
2022/03/20 01:39:20;;;;;;;22.87;17.77;;;5.70;79.50;;;;;;5094589;28;20174;-89
2022/03/20 01:41:47;;;;;;;25.77;18.30;;;5.70;79.60;;;;;;5094436;28;20593;-89
2022/03/20 01:44:13;;;;;;;22.07;18.90;;;5.60;79.40;;;;;;5076042;28;20174;-89
2022/03/20 01:46:39;;;;;;;23.27;18.33;;;5.60;79.50;;;;;;5075791;28;20182;-91
2022/03/20 01:49:05;;;;;;;23.57;18.93;;;5.50;79.60;;;;;;5076057;28;20210;-92
2022/03/20 01:54:15;;;;;;;21.00;18.50;;;5.40;79.80;;;;;;5094537;28;20215;-89
2022/03/20 01:56:46;;;;;;;24.30;18.93;;;5.40;80.10;;;;;;5094329;28;20178;-91
2022/03/20 01:59:14;;;;;;;24.17;18.80;;;5.40;80.00;;;;;;5076241;28;20752;-93
2022/03/20 02:01:39;;;;;;;26.03;19.60;;;5.20;79.90;;;;;;5093842;28;20170;-89
2022/03/20 02:04:05;;;;;;;20.37;17.97;;;5.20;79.90;;;;;;5075943;28;20178;-90
2022/03/20 02:06:32;;;;;;;21.83;18.40;;;5.20;79.70;;;;;;5093484;28;20630;-88
2022/03/20 02:08:57;;;;;;;25.03;18.63;;;5.10;79.90;;;;;;5093831;28;20174;-90
2022/03/20 02:11:27;;;;;;;23.33;18.97;;;5.00;79.80;;;;;;5075869;28;20255;-88
2022/03/20 02:13:53;;;;;;;21.47;18.23;;;4.90;80.20;;;;;;5080542;28;20224;-87
2022/03/20 02:16:20;;;;;;;25.93;18.93;;;4.90;80.30;;;;;;5078400;28;20673;-87
2022/03/20 02:18:47;;;;;;;22.13;18.23;;;4.80;80.00;;;;;;5075693;28;20180;-88
2022/03/20 02:21:15;;;;;;;23.03;18.27;;;4.80;80.30;;;;;;5093408;28;20227;-88
2022/03/20 02:23:44;;;;;;;23.93;18.93;;;4.80;80.30;;;;;;5093261;28;20263;-88
2022/03/20 02:26:10;;;;;;;24.13;18.90;;;4.70;80.40;;;;;;5074891;28;20182;-88
2022/03/20 02:28:36;;;;;;;26.07;19.30;;;4.80;80.30;;;;;;5074563;28;20231;-88
2022/03/20 02:31:02;;;;;;;24.93;18.97;;;4.70;80.10;;;;;;5096458;28;20234;-90
2022/03/20 02:33:29;;;;;;;22.57;19.00;;;4.70;80.00;;;;;;5100361;28;20170;-92
2022/03/20 02:35:55;;;;;;;23.33;18.53;;;4.70;79.80;;;;;;5101611;28;20173;-93
2022/03/20 02:38:21;;;;;;;23.00;17.93;;;4.60;79.30;;;;;;5095330;28;20268;-91
2022/03/20 02:40:54;;;;;;;23.03;17.87;;;4.50;79.50;;;;;;5076446;28;20680;-92
2022/03/20 02:43:20;;;;;;;22.77;18.03;;;4.60;79.60;;;;;;5080681;28;20178;-93
2022/03/20 02:45:47;;;;;;;21.30;17.67;;;4.60;79.50;;;;;;5080234;28;20247;-92
2022/03/20 02:48:13;;;;;;;21.43;17.03;;;4.50;79.10;;;;;;5108758;28;20477;-91
2022/03/20 02:50:40;;;;;;;23.97;18.17;;;4.40;79.10;;;;;;5089444;28;20590;-92
2022/03/20 02:53:14;;;;;;;23.23;17.77;;;4.30;79.00;;;;;;5098334;28;20166;-91
2022/03/20 02:55:45;;;;;;;21.90;18.00;;;4.40;79.50;;;;;;5079943;28;20212;-89
2022/03/20 02:58:13;;;;;;;21.77;17.53;;;4.40;79.40;;;;;;5098034;28;20166;-92
2022/03/20 03:00:41;;;;;;;22.00;17.47;;;4.40;78.90;;;;;;5097731;28;20206;-91
2022/03/20 03:03:11;;;;;;;19.87;17.03;;;4.40;79.10;;;;;;5097558;28;20170;-91
2022/03/20 03:05:38;;;;;;;21.80;17.20;;;4.40;79.20;;;;;;5081070;28;20178;-90
2022/03/20 03:10:57;;;;;;;21.90;16.63;;;4.30;78.60;;;;;;5110039;28;20262;-93
2022/03/20 03:13:24;;;;;;;23.03;17.23;;;4.30;78.50;;;;;;5098530;28;20221;-93
2022/03/20 03:15:54;;;;;;;21.80;17.57;;;4.20;78.70;;;;;;5094232;28;20164;-91
2022/03/20 03:18:22;;;;;;;24.97;17.97;;;4.20;78.70;;;;;;5119594;28;20170;-94
2022/03/20 03:20:49;;;;;;;23.10;16.97;;;4.20;78.70;;;;;;5097631;28;20176;-93
2022/03/20 03:23:15;;;;;;;21.30;17.57;;;4.10;78.80;;;;;;5080402;28;20701;-90
2022/03/20 03:25:42;;;;;;;22.80;18.27;;;4.00;79.00;;;;;;5082251;28;20323;-88
2022/03/20 03:28:09;;;;;;;22.20;17.40;;;4.00;78.90;;;;;;5082015;28;20232;-93
2022/03/20 03:30:44;;;;;;;23.03;17.80;;;4.00;78.80;;;;;;5079860;28;20210;-91
2022/03/20 03:33:11;;;;;;;20.77;17.10;;;4.00;79.20;;;;;;5097713;28;20184;-91
2022/03/20 03:35:46;;;;;;;22.07;16.30;;;4.00;78.90;;;;;;5097324;28;20175;-91
2022/03/20 03:38:14;;;;;;;23.40;17.80;;;3.90;78.90;;;;;;5078818;28;20177;-91
2022/03/20 03:40:43;;;;;;;22.70;17.83;;;3.90;79.20;;;;;;5079036;28;20278;-88
2022/03/20 03:43:09;;;;;;;21.67;17.33;;;4.00;78.80;;;;;;5096602;28;20167;-88
2022/03/20 03:45:38;;;;;;;21.17;16.63;;;4.00;78.80;;;;;;5095860;28;20172;-88
2022/03/20 03:48:05;;;;;;;21.30;16.97;;;3.90;79.00;;;;;;5095648;28;20198;-94
2022/03/20 03:50:30;;;;;;;23.10;17.60;;;3.90;79.20;;;;;;5097599;28;20209;-90
2022/03/20 03:52:57;;;;;;;22.37;18.17;;;3.90;79.30;;;;;;5096573;28;20169;-94
2022/03/20 03:55:23;;;;;;;22.33;16.87;;;3.90;79.30;;;;;;5090737;28;20200;-92
2022/03/20 03:57:50;;;;;;;19.60;16.77;;;4.00;78.70;;;;;;5089703;28;20196;-91
2022/03/20 04:00:18;;;;;;;22.93;17.03;;;3.90;78.80;;;;;;5090139;28;20597;-91
2022/03/20 04:02:44;;;;;;;21.70;17.43;;;3.80;79.00;;;;;;5097124;28;20172;-94
2022/03/20 04:05:10;;;;;;;19.33;16.43;;;3.80;79.00;;;;;;5078420;28;20664;-93
2022/03/20 04:07:36;;;;;;;19.97;17.30;;;3.90;78.90;;;;;;5096208;28;20246;-92
2022/03/20 04:10:05;;;;;;;20.43;16.30;;;3.80;78.80;;;;;;5078478;28;20658;-94
2022/03/20 04:12:43;;;;;;;20.97;17.47;;;3.90;79.10;;;;;;5078542;28;20265;-93
2022/03/20 04:15:14;;;;;;;20.70;17.23;;;3.80;79.20;;;;;;5096414;28;20610;-95
2022/03/20 04:17:40;;;;;;;19.47;16.57;;;3.70;79.40;;;;;;5078409;28;20644;-91
2022/03/20 04:20:12;;;;;;;20.90;17.50;;;3.70;79.70;;;;;;5096406;28;20187;-91
2022/03/20 04:22:40;;;;;;;23.30;16.97;;;3.70;79.80;;;;;;5096165;28;20237;-92
2022/03/20 04:25:08;;;;;;;20.50;16.63;;;3.60;79.80;;;;;;5096013;28;20741;-92
2022/03/20 04:27:34;;;;;;;22.33;17.70;;;3.60;80.00;;;;;;5095419;28;20226;-92
2022/03/20 04:30:00;;;;;;;22.37;16.57;;;3.60;80.30;;;;;;5095485;28;20234;-89
2022/03/20 04:32:26;;;;;;;21.90;17.60;;;3.50;80.80;;;;;;5077963;28;20579;-87
2022/03/20 04:34:53;;;;;;;22.10;17.33;;;3.50;80.20;;;;;;5095783;28;20292;-88
2022/03/20 04:37:21;;;;;;;22.63;16.97;;;3.50;80.00;;;;;;5076869;28;20171;-89
2022/03/20 04:39:47;;;;;;;21.43;17.37;;;3.50;80.40;;;;;;5077016;28;20170;-91
2022/03/20 04:42:13;;;;;;;24.30;18.37;;;3.40;80.50;;;;;;5078234;28;20177;-88
2022/03/20 04:44:40;;;;;;;21.63;17.03;;;3.30;80.60;;;;;;5102896;28;20173;-90
2022/03/20 04:58:29;;;;;;;22.77;17.07;;;3.30;80.90;;;;;;5098430;28;20203;-90
2022/03/20 05:00:54;;;;;;;21.47;17.10;;;3.00;81.80;;;;;;5101258;28;20192;-92
2022/03/20 05:03:20;;;;;;;22.77;17.00;;;3.00;81.40;;;;;;5111177;28;20174;-88
2022/03/20 05:05:46;;;;;;;20.77;16.63;;;3.00;81.30;;;;;;5100900;28;20173;-92
2022/03/20 05:08:11;;;;;;;22.80;17.70;;;3.00;80.90;;;;;;5106714;28;20189;-89
2022/03/20 05:13:21;;;;;;;24.77;17.80;;;2.90;81.30;;;;;;5103239;28;20207;-88
2022/03/20 05:15:47;;;;;;;19.57;16.50;;;2.90;81.50;;;;;;5097894;28;20536;-88
2022/03/20 05:18:14;;;;;;;21.33;16.70;;;2.80;81.40;;;;;;5105263;28;20173;-91
2022/03/20 05:20:44;;;;;;;21.23;16.43;;;2.70;81.90;;;;;;5102512;28;20177;-89
2022/03/20 05:23:10;;;;;;;21.60;16.53;;;2.70;81.90;;;;;;5078722;28;20178;-89
2022/03/20 05:25:37;;;;;;;21.37;16.80;;;2.80;81.80;;;;;;5077555;28;20178;-91
2022/03/20 05:28:04;;;;;;;23.57;17.73;;;2.90;81.90;;;;;;5094784;28;20249;-92
2022/03/20 05:30:30;;;;;;;20.37;17.10;;;2.90;81.90;;;;;;5094771;28;20234;-92
2022/03/20 05:32:57;;;;;;;20.37;16.87;;;3.00;81.20;;;;;;5094902;28;20184;-94
2022/03/20 05:35:23;;;;;;;19.53;16.03;;;2.90;81.40;;;;;;5094788;28;20177;-92
2022/03/20 05:37:49;;;;;;;22.77;16.30;;;2.90;81.60;;;;;;5094730;28;20624;-93
2022/03/20 05:40:16;;;;;;;21.53;17.57;;;2.90;81.60;;;;;;5094760;28;20222;-90
2022/03/20 05:42:42;;;;;;;20.67;16.53;;;2.90;81.60;;;;;;5077471;28;20221;-93
2022/03/20 05:45:10;;;;;;;22.07;17.03;;;2.90;81.80;;;;;;5077262;28;20538;-92
2022/03/20 05:47:40;;;;;;;20.07;17.17;;;2.90;81.90;;;;;;5077883;28;20265;-90
2022/03/20 05:50:07;;;;;;;22.23;17.60;;;2.80;82.40;;;;;;5094661;28;20210;-91
2022/03/20 05:52:34;;;;;;;21.10;17.53;;;2.80;82.70;;;;;;5075865;28;20229;-87
2022/03/20 05:55:04;;;;;;;22.57;16.60;;;2.90;82.40;;;;;;5094040;28;20177;-91
2022/03/20 06:00:25;;;;;;;21.47;16.53;;;2.90;82.40;;;;;;5094180;28;20643;-87
2022/03/20 06:02:51;;;;;;;22.13;16.40;;;2.90;82.40;;;;;;5093667;28;20244;-90
2022/03/20 06:05:18;;;;;;;22.90;17.23;;;3.00;82.30;;;;;;5075609;28;20215;-88
2022/03/20 06:07:46;;;;;;;23.87;17.07;;;3.00;81.90;;;;;;5075675;28;20181;-91
2022/03/20 06:10:17;;;;;;;20.30;16.20;;;3.10;81.80;;;;;;5093496;28;20522;-87
2022/03/20 06:12:43;;;;;;;23.57;17.60;;;3.00;81.70;;;;;;5075696;28;20174;-87
2022/03/20 06:15:10;;;;;;;24.13;17.10;;;3.00;81.90;;;;;;5094102;28;20174;-89
2022/03/20 06:17:40;;;;;;;22.93;17.30;;;3.10;82.10;;;;;;5093842;28;20175;-87
2022/03/20 06:20:09;;;;;;;23.20;17.43;;;3.20;81.90;;;;;;5093914;28;20366;-89
2022/03/20 06:22:36;;;;;;;21.10;16.60;;;3.20;81.60;;;;;;5077710;28;20174;-89
2022/03/20 06:25:09;;;;;;;22.53;17.10;;;3.40;81.20;;;;;;5097882;28;20658;-88
2022/03/20 06:27:45;;;;;;;19.80;16.33;;;3.50;81.10;;;;;;5099682;28;20159;-87
2022/03/20 06:30:13;;;;;;;20.53;15.67;;;3.60;80.60;;;;;;5080122;28;20216;-87
2022/03/20 06:32:40;;;;;;;20.27;15.73;;;3.60;80.40;;;;;;5097435;28;20512;-88
2022/03/20 06:35:06;;;;;;;21.93;16.13;;;3.70;80.50;;;;;;5082035;28;20203;-86
2022/03/20 06:37:44;;;;;;;20.03;16.93;;;3.80;79.90;;;;;;5100293;28;20177;-87
2022/03/20 06:40:11;;;;;;;19.13;15.87;;;3.80;79.40;;;;;;5081589;28;20522;-88
2022/03/20 06:42:37;;;;;;;20.97;16.47;;;3.80;79.40;;;;;;5084016;28;20205;-88
2022/03/20 06:45:06;;;;;;;20.93;17.03;;;3.80;79.50;;;;;;5080012;28;20172;-89
2022/03/20 06:47:32;;;;;;;23.43;16.80;;;3.90;79.60;;;;;;5097455;28;20200;-88
2022/03/20 06:49:59;;;;;;;20.70;17.27;;;3.90;79.60;;;;;;5100213;28;20167;-90
2022/03/20 06:52:28;;;;;;;19.50;16.20;;;4.10;80.00;;;;;;5121895;28;20154;-88
2022/03/20 06:54:56;;;;;;;20.70;16.43;;;4.10;78.90;;;;;;5109636;28;20183;-94
2022/03/20 06:57:23;;;;;;;21.10;16.03;;;4.20;78.50;;;;;;5100000;28;20177;-92
2022/03/20 06:59:49;;;;;;;22.23;16.83;;;4.30;78.90;;;;;;5083094;28;20200;-87
2022/03/20 07:02:18;;;;;;;21.07;17.37;;;4.40;78.50;;;;;;5108948;28;20176;-88
2022/03/20 07:04:48;;;;;;;20.37;17.00;;;4.40;78.40;;;;;;5108866;28;20169;-88
2022/03/20 07:07:21;;;;;;;20.70;17.30;;;4.50;78.20;;;;;;5103633;28;20226;-88
2022/03/20 07:09:47;;;;;;;19.77;16.47;;;4.60;77.90;;;;;;5081042;28;20179;-88
2022/03/20 07:12:13;;;;;;;21.63;15.50;;;4.60;77.90;;;;;;5097805;28;20703;-89
2022/03/20 07:14:41;;;;;;;19.17;16.27;;;4.60;78.20;;;;;;5080353;28;20269;-89
2022/03/20 07:17:09;;;;;;;19.93;16.10;;;4.70;78.00;;;;;;5078874;28;20180;-91
2022/03/20 07:19:37;;;;;;;18.53;15.70;;;4.80;77.00;;;;;;5079028;28;20248;-90
2022/03/20 07:22:05;;;;;;;20.77;16.57;;;4.90;76.20;;;;;;5097662;28;20531;-90
2022/03/20 07:24:32;;;;;;;18.87;15.63;;;5.00;75.70;;;;;;5079189;28;20178;-91
2022/03/20 07:29:43;;;;;;;19.43;16.57;;;5.00;76.00;;;;;;5095890;28;20228;-89
2022/03/20 07:32:09;;;;;;;19.47;15.60;;;5.10;76.00;;;;;;5078094;28;20214;-91
2022/03/20 07:34:37;;;;;;;22.47;16.23;;;5.20;75.30;;;;;;5096132;28;20636;-90
2022/03/20 07:37:03;;;;;;;18.33;15.20;;;5.30;75.50;;;;;;5078644;28;20227;-91
2022/03/20 07:39:30;;;;;;;17.77;14.03;;;5.40;74.50;;;;;;5078620;28;20359;-90
2022/03/20 07:41:56;;;;;;;18.80;14.53;;;5.40;72.00;;;;;;5078599;28;20181;-87
2022/03/20 07:44:23;;;;;;;20.33;14.30;;;5.50;70.90;;;;;;5096841;28;20272;-91
2022/03/20 07:46:49;;;;;;;17.00;14.37;;;5.60;70.30;;;;;;5079077;28;20229;-91
2022/03/20 07:49:15;;;;;;;17.07;14.23;;;5.70;70.30;;;;;;5078628;28;20176;-94
2022/03/20 07:51:42;;;;;;;18.43;15.17;;;5.70;69.80;;;;;;5079007;28;20267;-91
2022/03/20 07:54:08;;;;;;;16.80;14.90;;;5.70;69.60;;;;;;5097699;28;20177;-94
2022/03/20 07:56:36;;;;;;;17.57;14.23;;;5.80;70.90;;;;;;5097586;28;20179;-93
2022/03/20 07:59:06;;;;;;;16.07;14.23;;;5.90;70.90;;;;;;5099934;28;20192;-92
2022/03/20 08:01:35;;;;;;;17.00;14.43;;;6.00;71.00;;;;;;5100126;28;20251;-92
2022/03/20 08:04:02;;;;;;;16.53;13.60;;;6.10;70.00;;;;;;5102257;28;20172;-89
2022/03/20 08:06:28;;;;;;;18.17;14.17;;;6.10;69.70;;;;;;5100267;28;20179;-91
2022/03/20 08:08:57;;;;;;;17.47;14.00;;;6.10;68.50;;;;;;5084684;28;20229;-88
2022/03/20 08:11:23;;;;;;;15.47;13.73;;;6.20;70.20;;;;;;5080617;28;20214;-94
2022/03/20 08:13:49;;;;;;;19.37;14.30;;;6.30;68.30;;;;;;5079290;28;20238;-90
2022/03/20 08:16:21;;;;;;;19.97;14.47;;;6.40;68.40;;;;;;5079555;28;20182;-91
2022/03/20 08:18:48;;;;;;;17.10;14.07;;;6.50;68.70;;;;;;5078781;28;20181;-93
2022/03/20 08:21:15;;;;;;;19.13;13.70;;;6.60;67.30;;;;;;5078933;28;20175;-93
2022/03/20 08:23:41;;;;;;;17.37;13.90;;;6.50;68.60;;;;;;5097171;28;20579;-91
2022/03/20 08:26:09;;;;;;;15.70;13.60;;;6.60;66.80;;;;;;5079532;28;20198;-94
2022/03/20 08:28:37;;;;;;;16.63;14.60;;;6.60;66.10;;;;;;5098638;28;20223;-91
2022/03/20 08:31:04;;;;;;;16.17;13.60;;;6.70;65.30;;;;;;5087091;28;20212;-91
2022/03/20 08:33:30;;;;;;;16.30;14.10;;;6.80;66.00;;;;;;5100607;28;20256;-92
2022/03/20 08:35:56;;;;;;;16.90;13.40;;;6.80;65.90;;;;;;5078094;28;20179;-90
2022/03/20 08:38:22;;;;;;;18.07;13.73;;;6.90;65.20;;;;;;5097619;28;20175;-94
2022/03/20 08:40:48;;;;;;;15.03;13.37;;;7.00;64.50;;;;;;5080118;28;20251;-92
2022/03/20 08:43:15;;;;;;;17.07;13.80;;;6.90;66.40;;;;;;5086775;28;20186;-91
2022/03/20 08:45:41;;;;;;;21.97;13.30;;;7.00;70.30;;;;;;5115949;28;20181;-91
2022/03/20 08:48:09;;;;;;;16.20;13.60;;;7.10;71.50;;;;;;5094706;28;20180;-88
2022/03/20 08:50:35;;;;;;;16.53;13.83;;;7.20;67.00;;;;;;5100945;28;20204;-89
2022/03/20 08:53:01;;;;;;;18.70;13.87;;;7.30;67.00;;;;;;5089471;28;20184;-89
2022/03/20 08:55:33;;;;;;;19.43;13.60;;;7.40;65.10;;;;;;5107536;28;20178;-94
2022/03/20 08:57:59;;;;;;;15.00;13.33;;;7.40;64.80;;;;;;5080829;28;20184;-91
2022/03/20 09:00:25;;;;;;;17.60;13.83;;;7.40;64.40;;;;;;5080985;28;20183;-89
2022/03/20 09:02:51;;;;;;;15.13;13.47;;;7.30;64.20;;;;;;5097230;28;20199;-92
2022/03/20 09:05:19;;;;;;;17.37;13.83;;;7.30;64.30;;;;;;5097335;28;20183;-89
2022/03/20 09:07:47;;;;;;;15.67;13.40;;;7.40;65.00;;;;;;5096689;28;20178;-90
2022/03/20 09:10:15;;;;;;;14.67;13.07;;;7.50;63.50;;;;;;5078106;28;20190;-87
2022/03/20 09:12:45;;;;;;;15.57;13.70;;;7.60;64.00;;;;;;5096249;28;20175;-88
2022/03/20 09:15:15;;;;;;;16.60;13.90;;;7.60;63.30;;;;;;5077143;28;20231;-88
2022/03/20 09:20:27;;;;;;;16.63;13.67;;;7.60;63.00;;;;;;5094906;28;20255;-88
2022/03/20 09:22:53;;;;;;;17.63;13.60;;;7.70;63.10;;;;;;5094703;28;20205;-90
2022/03/20 09:25:20;;;;;;;15.33;13.23;;;7.60;62.70;;;;;;5077358;28;20182;-92
2022/03/20 09:27:49;;;;;;;16.97;13.37;;;7.60;63.20;;;;;;5096413;28;20224;-88
2022/03/20 09:30:19;;;;;;;16.57;13.20;;;7.60;63.00;;;;;;5094510;28;20194;-86
2022/03/20 09:32:45;;;;;;;18.83;13.37;;;7.60;64.10;;;;;;5103585;28;20172;-90
2022/03/20 09:35:12;;;;;;;15.20;13.27;;;7.70;62.00;;;;;;5104758;28;20232;-90
2022/03/20 09:37:39;;;;;;;16.13;13.10;;;7.70;62.00;;;;;;5083390;28;20212;-91
2022/03/20 09:40:06;;;;;;;14.43;12.93;;;7.80;62.50;;;;;;5081704;28;20173;-88
2022/03/20 09:42:34;;;;;;;13.77;12.37;;;7.80;61.90;;;;;;5078128;28;20986;-91
2022/03/20 09:45:00;;;;;;;16.67;13.10;;;7.90;63.10;;;;;;5078421;28;20170;-91
2022/03/20 09:47:26;;;;;;;14.83;12.63;;;8.10;61.40;;;;;;5094480;28;20656;-91
2022/03/20 09:49:56;;;;;;;15.90;12.70;;;8.20;60.40;;;;;;5094286;28;20627;-90
2022/03/20 09:52:23;;;;;;;16.10;13.30;;;8.20;60.90;;;;;;5076419;28;20207;-90
2022/03/20 09:54:49;;;;;;;18.27;13.33;;;8.20;61.50;;;;;;5094731;28;20526;-88
2022/03/20 09:57:15;;;;;;;14.57;11.57;;;8.20;62.80;;;;;;5096970;28;20174;-91
2022/03/20 09:59:41;;;;;;;14.57;12.40;;;8.30;60.60;;;;;;5079183;28;20715;-91
2022/03/20 10:02:10;;;;;;;12.93;11.57;;;8.40;60.70;;;;;;5096855;28;20194;-89
2022/03/20 10:04:52;;;;;;;12.27;11.00;;;8.50;60.10;;;;;;5094446;28;20245;-89
2022/03/20 10:07:24;;;;;;;12.10;10.80;;;8.80;57.80;;;;;;5095111;28;20188;-90
2022/03/20 10:10:18;;;;;;;12.63;11.33;;;8.70;58.50;;;;;;5094008;28;20184;-88
2022/03/20 10:12:53;;;;;;;14.03;12.63;;;8.60;60.00;;;;;;5095799;28;20185;-91
2022/03/20 10:15:34;;;;;;;15.10;12.63;;;8.60;59.50;;;;;;5095976;28;20210;-92
2022/03/20 10:18:20;;;;;;;12.10;9.97;;;8.70;59.40;;;;;;5078537;28;20196;-88
2022/03/20 10:20:51;;;;;;;10.43;9.40;;;8.80;57.60;;;;;;5095408;28;20184;-86
2022/03/20 10:23:41;;;;;;;14.53;11.93;;;8.90;57.20;;;;;;5095241;28;20165;-88
2022/03/20 10:26:16;;;;;;;26.90;18.03;;;8.90;58.10;;;;;;5131753;28;20152;-89
2022/03/20 10:28:49;;;;;;;15.63;12.83;;;8.90;57.50;;;;;;5106792;28;20231;-88
2022/03/20 10:31:23;;;;;;;19.43;15.40;;;9.00;55.80;;;;;;5105475;28;20210;-89
2022/03/20 10:34:06;;;;;;;24.87;17.73;;;9.00;57.60;;;;;;5107645;28;20269;-88
2022/03/20 10:36:36;;;;;;;14.17;12.67;;;9.10;57.90;;;;;;5134492;28;20207;-91
2022/03/20 10:39:08;;;;;;;13.13;11.77;;;9.10;57.40;;;;;;5120491;28;20164;-87
2022/03/20 10:41:34;;;;;;;13.67;10.53;;;9.20;57.20;;;;;;5136621;28;20170;-90
2022/03/20 10:44:01;;;;;;;17.23;12.20;;;9.30;55.40;;;;;;5118361;28;20181;-87
2022/03/20 10:46:29;;;;;;;14.03;11.83;;;9.50;57.00;;;;;;5101801;28;20234;-88
2022/03/20 10:48:57;;;;;;;13.87;10.90;;;9.60;55.80;;;;;;5093561;28;20645;-88
2022/03/20 10:51:42;;;;;;;12.83;11.43;;;9.70;54.70;;;;;;5076754;28;20672;-88
2022/03/20 10:54:20;;;;;;;11.40;10.20;;;9.80;54.50;;;;;;5075835;28;20184;-88
2022/03/20 10:56:58;;;;;;;16.90;9.97;;;9.90;54.20;;;;;;5076406;28;20182;-86
2022/03/20 10:59:25;;;;;;;15.70;9.03;;;9.90;50.40;;;;;;5114895;28;20643;-92
2022/03/20 11:01:51;;;;;;;9.43;8.43;;;9.80;48.90;;;;;;5115028;28;20659;-91
2022/03/20 11:04:23;;;;;;;9.63;8.73;;;9.90;48.90;;;;;;5119643;28;20193;-89
2022/03/20 11:06:54;;;;;;;11.20;9.00;;;9.90;49.00;;;;;;5118137;28;20153;-91
2022/03/20 11:09:20;;;;;;;10.90;8.87;;;9.90;50.10;;;;;;5116944;28;20183;-91
2022/03/20 11:11:53;;;;;;;10.83;9.40;;;9.90;51.00;;;;;;5099711;28;20240;-90
2022/03/20 11:14:21;;;;;;;9.90;9.00;;;10.10;50.30;;;;;;5121364;28;20230;-90
2022/03/20 11:16:53;;;;;;;14.03;9.07;;;10.20;50.00;;;;;;5119824;28;20172;-91
2022/03/20 11:19:28;;;;;;;11.30;9.57;;;10.30;49.10;;;;;;5118570;28;20166;-92
2022/03/20 11:21:58;;;;;;;10.17;9.17;;;10.30;49.00;;;;;;5101254;28;20177;-92
2022/03/20 11:24:25;;;;;;;9.77;8.87;;;10.40;47.30;;;;;;5118948;28;20170;-91
2022/03/20 11:26:53;;;;;;;10.17;9.17;;;10.40;47.60;;;;;;5117014;28;20181;-91
2022/03/20 11:29:19;;;;;;;12.57;8.87;;;10.40;48.70;;;;;;5117997;28;20217;-91
2022/03/20 11:31:46;;;;;;;9.97;8.97;;;10.40;48.40;;;;;;5117693;28;20564;-91
2022/03/20 11:34:15;;;;;;;10.07;8.83;;;10.50;47.50;;;;;;5118475;28;20173;-89
2022/03/20 11:37:01;;;;;;;9.93;8.73;;;10.40;47.10;;;;;;5098477;28;20182;-91
2022/03/20 11:39:27;;;;;;;9.73;8.80;;;10.30;46.60;;;;;;5099442;28;20234;-91
2022/03/20 11:42:25;;;;;;;11.67;8.60;;;10.20;46.70;;;;;;5117234;28;20266;-89
2022/03/20 11:44:52;;;;;;;9.30;8.40;;;10.30;48.40;;;;;;5099038;28;20182;-88
2022/03/20 11:47:27;;;;;;;10.17;8.50;;;10.20;48.80;;;;;;5095449;28;20625;-87
2022/03/20 11:50:13;;;;;;;8.63;7.83;;;10.00;47.40;;;;;;5096749;28;20636;-87
2022/03/20 11:52:44;;;;;;;9.57;8.67;;;10.10;48.20;;;;;;5096479;28;20194;-87
2022/03/20 11:55:32;;;;;;;13.03;8.57;;;10.10;48.00;;;;;;5097671;28;20264;-89
2022/03/20 11:58:21;;;;;;;9.23;8.43;;;10.30;48.70;;;;;;5103404;28;20639;-86
2022/03/20 12:01:04;;;;;;;9.60;8.00;;;10.40;49.10;;;;;;5087001;28;20638;-91
2022/03/20 12:03:54;;;;;;;12.13;8.53;;;10.60;47.80;;;;;;5078640;28;20639;-87
2022/03/20 12:06:30;;;;;;;9.40;8.47;;;10.60;47.30;;;;;;5078717;28;20271;-87
2022/03/20 12:09:33;;;;;;;9.60;7.57;;;10.70;46.70;;;;;;5078222;28;20185;-86
2022/03/20 12:12:02;;;;;;;8.43;7.67;;;10.60;45.70;;;;;;5077748;28;20202;-86
2022/03/20 12:14:46;;;;;;;9.03;8.23;;;10.60;45.80;;;;;;5077750;28;20179;-87
2022/03/20 12:17:12;;;;;;;20.87;14.90;;;10.60;45.30;;;;;;5077956;28;20210;-88
2022/03/20 12:19:42;;;;;;;12.63;10.57;;;10.60;47.50;;;;;;5095519;28;20198;-88
2022/03/20 12:22:18;;;;;;;10.30;9.30;;;10.70;47.00;;;;;;5098793;28;20163;-91
2022/03/20 12:24:51;;;;;;;9.80;8.80;;;10.70;46.30;;;;;;5089178;28;20174;-90
2022/03/20 12:27:23;;;;;;;11.03;9.27;;;10.80;46.40;;;;;;5102413;28;20155;-91
2022/03/20 12:29:58;;;;;;;9.13;8.30;;;10.80;47.30;;;;;;5119001;28;20227;-88
2022/03/20 12:32:48;;;;;;;9.37;8.47;;;10.80;46.80;;;;;;5097036;28;20183;-89
2022/03/20 12:35:23;;;;;;;10.10;8.33;;;10.80;46.80;;;;;;5089747;28;20186;-88
2022/03/20 12:37:50;;;;;;;9.83;8.00;;;10.70;46.10;;;;;;5079715;28;20174;-89
2022/03/20 12:40:26;;;;;;;10.87;8.33;;;10.70;45.30;;;;;;5097153;28;20179;-88
2022/03/20 12:42:59;;;;;;;11.27;8.80;;;10.70;46.00;;;;;;5099189;28;20188;-89
2022/03/20 12:45:26;;;;;;;9.03;8.13;;;10.60;46.90;;;;;;5081849;28;20212;-89
2022/03/20 12:48:05;;;;;;;9.73;8.47;;;10.60;47.50;;;;;;5100106;28;20640;-89
2022/03/20 12:50:37;;;;;;;9.43;8.50;;;10.70;48.40;;;;;;5062441;28;20209;-87
2022/03/20 12:53:09;;;;;;;9.03;8.13;;;10.70;48.00;;;;;;5096571;28;20244;-89
2022/03/20 12:55:39;;;;;;;9.03;8.23;;;10.70;47.00;;;;;;5096237;28;20174;-87
2022/03/20 12:58:07;;;;;;;10.43;7.73;;;10.60;46.00;;;;;;5096202;28;20173;-89
2022/03/20 13:00:36;;;;;;;8.50;7.60;;;10.40;44.60;;;;;;5077966;28;20182;-87
2022/03/20 13:03:18;;;;;;;9.53;7.93;;;10.30;45.20;;;;;;5096520;28;20179;-87
2022/03/20 13:05:52;;;;;;;10.67;8.63;;;10.20;45.70;;;;;;5096031;28;20162;-88
2022/03/20 13:08:50;;;;;;;7.87;7.17;;;10.10;45.50;;;;;;5096398;28;20275;-88
2022/03/20 13:14:12;;;;;;;8.50;7.40;;;10.00;45.40;;;;;;5015043;28;20235;-86
2022/03/20 13:17:07;;;;;;;7.77;6.90;;;9.90;46.30;;;;;;4997223;28;20169;-85
2022/03/20 13:19:35;;;;;;;8.07;7.30;;;9.80;45.70;;;;;;5001902;28;20192;-85